sensor_id;sensor_type;location;lat;lon;timestamp;P1;durP1;ratioP1;P2;durP2;ratioP2
17794;SDS011;9021;50.882;4.326;2023-01-08T00:01:51;7.15;;;2.50;;
17794;SDS011;9021;50.882;4.326;2023-01-08T00:04:17;6.13;;;2.50;;
17794;SDS011;9021;50.882;4.326;2023-01-08T00:06:43;6.45;;;2.30;;
17794;SDS011;9021;50.882;4.326;2023-01-08T00:09:09;3.15;;;0.82;;
17794;SDS011;9021;50.882;4.326;2023-01-08T00:11:35;2.72;;;0.55;;
17794;SDS011;9021;50.882;4.326;2023-01-08T00:14:01;3.35;;;0.65;;
17794;SDS011;9021;50.882;4.326;2023-01-08T00:16:27;2.85;;;0.70;;
17794;SDS011;9021;50.882;4.326;2023-01-08T00:21:19;4.03;;;0.50;;
17794;SDS011;9021;50.882;4.326;2023-01-08T00:23:44;4.28;;;0.60;;
17794;SDS011;9021;50.882;4.326;2023-01-08T00:26:10;2.10;;;0.50;;
17794;SDS011;9021;50.882;4.326;2023-01-08T00:28:36;1.38;;;0.50;;
17794;SDS011;9021;50.882;4.326;2023-01-08T00:33:28;5.85;;;0.60;;
17794;SDS011;9021;50.882;4.326;2023-01-08T00:35:55;4.47;;;0.60;;
17794;SDS011;9021;50.882;4.326;2023-01-08T00:38:24;2.33;;;0.57;;
17794;SDS011;9021;50.882;4.326;2023-01-08T00:40:51;3.45;;;0.50;;
17794;SDS011;9021;50.882;4.326;2023-01-08T00:43:17;4.22;;;0.60;;
17794;SDS011;9021;50.882;4.326;2023-01-08T00:45:42;3.70;;;0.45;;
17794;SDS011;9021;50.882;4.326;2023-01-08T00:48:08;2.22;;;0.50;;
17794;SDS011;9021;50.882;4.326;2023-01-08T00:50:34;5.55;;;0.95;;
17794;SDS011;9021;50.882;4.326;2023-01-08T00:53:00;2.35;;;0.50;;
17794;SDS011;9021;50.882;4.326;2023-01-08T00:55:26;3.75;;;0.60;;
17794;SDS011;9021;50.882;4.326;2023-01-08T00:57:51;5.45;;;0.85;;
17794;SDS011;9021;50.882;4.326;2023-01-08T01:00:17;3.47;;;0.68;;
17794;SDS011;9021;50.882;4.326;2023-01-08T01:02:43;2.10;;;0.60;;
17794;SDS011;9021;50.882;4.326;2023-01-08T01:05:09;2.42;;;0.50;;
17794;SDS011;9021;50.882;4.326;2023-01-08T01:07:39;4.00;;;1.00;;
17794;SDS011;9021;50.882;4.326;2023-01-08T01:10:05;3.67;;;0.77;;
17794;SDS011;9021;50.882;4.326;2023-01-08T01:12:31;2.92;;;0.50;;
17794;SDS011;9021;50.882;4.326;2023-01-08T01:14:56;4.28;;;1.15;;
17794;SDS011;9021;50.882;4.326;2023-01-08T01:17:22;5.43;;;0.82;;
17794;SDS011;9021;50.882;4.326;2023-01-08T01:19:48;4.15;;;0.55;;
17794;SDS011;9021;50.882;4.326;2023-01-08T01:22:13;3.63;;;0.88;;
17794;SDS011;9021;50.882;4.326;2023-01-08T01:24:39;5.22;;;0.73;;
17794;SDS011;9021;50.882;4.326;2023-01-08T01:27:04;4.32;;;0.93;;
17794;SDS011;9021;50.882;4.326;2023-01-08T01:29:30;3.38;;;0.63;;
17794;SDS011;9021;50.882;4.326;2023-01-08T01:31:56;2.75;;;0.70;;
17794;SDS011;9021;50.882;4.326;2023-01-08T01:34:21;6.93;;;0.73;;
17794;SDS011;9021;50.882;4.326;2023-01-08T01:36:47;2.67;;;0.77;;
17794;SDS011;9021;50.882;4.326;2023-01-08T01:39:12;3.15;;;0.60;;
17794;SDS011;9021;50.882;4.326;2023-01-08T01:41:42;3.17;;;0.75;;
17794;SDS011;9021;50.882;4.326;2023-01-08T01:47:06;2.97;;;0.60;;
17794;SDS011;9021;50.882;4.326;2023-01-08T01:49:49;3.97;;;0.80;;
17794;SDS011;9021;50.882;4.326;2023-01-08T01:52:29;6.00;;;0.80;;
17794;SDS011;9021;50.882;4.326;2023-01-08T01:54:59;4.43;;;1.42;;
17794;SDS011;9021;50.882;4.326;2023-01-08T01:57:26;5.88;;;1.17;;
17794;SDS011;9021;50.882;4.326;2023-01-08T01:59:53;8.27;;;1.85;;
17794;SDS011;9021;50.882;4.326;2023-01-08T02:02:20;2.80;;;1.38;;
17794;SDS011;9021;50.882;4.326;2023-01-08T02:04:45;6.47;;;1.75;;
17794;SDS011;9021;50.882;4.326;2023-01-08T02:07:15;4.70;;;1.40;;
17794;SDS011;9021;50.882;4.326;2023-01-08T02:09:51;4.22;;;1.42;;
17794;SDS011;9021;50.882;4.326;2023-01-08T02:20:31;6.15;;;1.42;;
17794;SDS011;9021;50.882;4.326;2023-01-08T02:23:19;4.47;;;1.27;;
17794;SDS011;9021;50.882;4.326;2023-01-08T02:26:03;3.70;;;1.17;;
17794;SDS011;9021;50.882;4.326;2023-01-08T02:28:31;3.83;;;1.67;;
17794;SDS011;9021;50.882;4.326;2023-01-08T02:31:02;7.13;;;2.05;;
17794;SDS011;9021;50.882;4.326;2023-01-08T02:33:29;5.13;;;1.75;;
17794;SDS011;9021;50.882;4.326;2023-01-08T02:41:27;4.55;;;1.88;;
17794;SDS011;9021;50.882;4.326;2023-01-08T02:45:04;5.75;;;1.40;;
17794;SDS011;9021;50.882;4.326;2023-01-08T02:47:11;4.85;;;1.38;;
17794;SDS011;9021;50.882;4.326;2023-01-08T02:50:14;5.25;;;1.45;;
17794;SDS011;9021;50.882;4.326;2023-01-08T02:53:10;2.45;;;0.80;;
17794;SDS011;9021;50.882;4.326;2023-01-08T02:55:45;2.35;;;0.80;;
17794;SDS011;9021;50.882;4.326;2023-01-08T02:58:17;1.88;;;0.70;;
17794;SDS011;9021;50.882;4.326;2023-01-08T03:00:44;2.67;;;0.70;;
17794;SDS011;9021;50.882;4.326;2023-01-08T03:03:11;2.67;;;0.77;;
17794;SDS011;9021;50.882;4.326;2023-01-08T03:05:40;2.65;;;0.70;;
17794;SDS011;9021;50.882;4.326;2023-01-08T03:08:07;1.45;;;0.80;;
17794;SDS011;9021;50.882;4.326;2023-01-08T03:10:34;3.30;;;1.10;;
17794;SDS011;9021;50.882;4.326;2023-01-08T03:13:04;3.13;;;0.90;;
17794;SDS011;9021;50.882;4.326;2023-01-08T03:15:43;3.20;;;0.95;;
17794;SDS011;9021;50.882;4.326;2023-01-08T03:18:12;3.40;;;1.00;;
17794;SDS011;9021;50.882;4.326;2023-01-08T03:20:43;2.45;;;0.80;;
17794;SDS011;9021;50.882;4.326;2023-01-08T03:23:10;5.45;;;1.27;;
17794;SDS011;9021;50.882;4.326;2023-01-08T03:25:38;4.60;;;1.10;;
17794;SDS011;9021;50.882;4.326;2023-01-08T03:28:19;2.95;;;1.20;;
17794;SDS011;9021;50.882;4.326;2023-01-08T03:30:49;2.53;;;1.13;;
17794;SDS011;9021;50.882;4.326;2023-01-08T03:33:17;5.40;;;1.10;;
17794;SDS011;9021;50.882;4.326;2023-01-08T03:35:46;2.67;;;1.10;;
17794;SDS011;9021;50.882;4.326;2023-01-08T03:38:23;4.68;;;1.13;;
17794;SDS011;9021;50.882;4.326;2023-01-08T03:40:56;4.05;;;1.08;;
17794;SDS011;9021;50.882;4.326;2023-01-08T03:43:26;5.05;;;1.10;;
17794;SDS011;9021;50.882;4.326;2023-01-08T03:45:54;4.43;;;1.05;;
17794;SDS011;9021;50.882;4.326;2023-01-08T03:48:22;7.95;;;1.48;;
17794;SDS011;9021;50.882;4.326;2023-01-08T03:50:49;9.80;;;2.10;;
17794;SDS011;9021;50.882;4.326;2023-01-08T03:53:15;8.13;;;1.02;;
17794;SDS011;9021;50.882;4.326;2023-01-08T03:55:41;6.00;;;0.93;;
17794;SDS011;9021;50.882;4.326;2023-01-08T03:58:06;9.93;;;1.13;;
17794;SDS011;9021;50.882;4.326;2023-01-08T04:00:32;5.28;;;0.70;;
17794;SDS011;9021;50.882;4.326;2023-01-08T04:02:58;4.85;;;0.93;;
17794;SDS011;9021;50.882;4.326;2023-01-08T04:05:23;8.60;;;1.15;;
17794;SDS011;9021;50.882;4.326;2023-01-08T04:07:49;6.60;;;0.70;;
17794;SDS011;9021;50.882;4.326;2023-01-08T04:10:15;9.75;;;0.80;;
17794;SDS011;9021;50.882;4.326;2023-01-08T04:12:41;4.38;;;0.95;;
17794;SDS011;9021;50.882;4.326;2023-01-08T04:15:07;5.40;;;1.00;;
17794;SDS011;9021;50.882;4.326;2023-01-08T04:17:33;8.43;;;1.55;;
17794;SDS011;9021;50.882;4.326;2023-01-08T04:19:59;8.10;;;1.70;;
17794;SDS011;9021;50.882;4.326;2023-01-08T04:22:24;5.30;;;1.23;;
17794;SDS011;9021;50.882;4.326;2023-01-08T04:24:50;3.90;;;1.13;;
17794;SDS011;9021;50.882;4.326;2023-01-08T04:27:15;8.90;;;1.27;;
17794;SDS011;9021;50.882;4.326;2023-01-08T04:29:41;8.40;;;1.77;;
17794;SDS011;9021;50.882;4.326;2023-01-08T04:32:07;6.10;;;1.23;;
17794;SDS011;9021;50.882;4.326;2023-01-08T04:34:32;6.55;;;1.20;;
17794;SDS011;9021;50.882;4.326;2023-01-08T04:36:58;9.82;;;1.58;;
17794;SDS011;9021;50.882;4.326;2023-01-08T04:41:50;5.72;;;1.30;;
17794;SDS011;9021;50.882;4.326;2023-01-08T04:44:15;8.90;;;1.45;;
17794;SDS011;9021;50.882;4.326;2023-01-08T04:46:41;7.65;;;1.33;;
17794;SDS011;9021;50.882;4.326;2023-01-08T04:49:06;12.40;;;2.03;;
17794;SDS011;9021;50.882;4.326;2023-01-08T04:51:33;11.52;;;1.80;;
17794;SDS011;9021;50.882;4.326;2023-01-08T04:53:59;7.22;;;1.88;;
17794;SDS011;9021;50.882;4.326;2023-01-08T04:56:24;9.15;;;1.25;;
17794;SDS011;9021;50.882;4.326;2023-01-08T04:58:50;5.50;;;1.50;;
17794;SDS011;9021;50.882;4.326;2023-01-08T05:01:20;8.63;;;1.40;;
17794;SDS011;9021;50.882;4.326;2023-01-08T05:03:47;11.10;;;1.80;;
17794;SDS011;9021;50.882;4.326;2023-01-08T05:06:16;12.57;;;1.55;;
17794;SDS011;9021;50.882;4.326;2023-01-08T05:08:42;8.85;;;1.60;;
17794;SDS011;9021;50.882;4.326;2023-01-08T05:11:07;7.03;;;1.45;;
17794;SDS011;9021;50.882;4.326;2023-01-08T05:13:33;8.93;;;1.30;;
17794;SDS011;9021;50.882;4.326;2023-01-08T05:15:59;7.05;;;1.40;;
17794;SDS011;9021;50.882;4.326;2023-01-08T05:18:25;10.18;;;1.63;;
17794;SDS011;9021;50.882;4.326;2023-01-08T05:20:51;7.28;;;1.50;;
17794;SDS011;9021;50.882;4.326;2023-01-08T05:23:17;8.60;;;1.80;;
17794;SDS011;9021;50.882;4.326;2023-01-08T05:25:42;7.32;;;1.30;;
17794;SDS011;9021;50.882;4.326;2023-01-08T05:28:08;9.48;;;1.10;;
17794;SDS011;9021;50.882;4.326;2023-01-08T05:30:35;9.07;;;1.27;;
17794;SDS011;9021;50.882;4.326;2023-01-08T05:33:00;8.98;;;1.50;;
17794;SDS011;9021;50.882;4.326;2023-01-08T05:35:26;9.00;;;1.25;;
17794;SDS011;9021;50.882;4.326;2023-01-08T05:37:52;5.25;;;1.10;;
17794;SDS011;9021;50.882;4.326;2023-01-08T05:40:17;10.32;;;1.20;;
17794;SDS011;9021;50.882;4.326;2023-01-08T05:42:43;10.63;;;1.52;;
17794;SDS011;9021;50.882;4.326;2023-01-08T05:45:08;7.63;;;1.48;;
17794;SDS011;9021;50.882;4.326;2023-01-08T05:47:34;10.45;;;1.55;;
17794;SDS011;9021;50.882;4.326;2023-01-08T05:50:00;13.30;;;1.60;;
17794;SDS011;9021;50.882;4.326;2023-01-08T05:52:26;9.13;;;1.08;;
17794;SDS011;9021;50.882;4.326;2023-01-08T05:54:51;10.65;;;1.60;;
17794;SDS011;9021;50.882;4.326;2023-01-08T05:57:17;10.32;;;1.30;;
17794;SDS011;9021;50.882;4.326;2023-01-08T05:59:43;4.75;;;1.38;;
17794;SDS011;9021;50.882;4.326;2023-01-08T06:02:08;6.88;;;1.27;;
17794;SDS011;9021;50.882;4.326;2023-01-08T06:04:34;9.55;;;1.63;;
17794;SDS011;9021;50.882;4.326;2023-01-08T06:07:00;8.38;;;1.15;;
17794;SDS011;9021;50.882;4.326;2023-01-08T06:09:25;7.28;;;0.95;;
17794;SDS011;9021;50.882;4.326;2023-01-08T06:11:51;7.80;;;1.25;;
17794;SDS011;9021;50.882;4.326;2023-01-08T06:14:17;11.38;;;1.50;;
17794;SDS011;9021;50.882;4.326;2023-01-08T06:16:43;14.35;;;1.42;;
17794;SDS011;9021;50.882;4.326;2023-01-08T06:19:09;10.13;;;1.20;;
17794;SDS011;9021;50.882;4.326;2023-01-08T06:21:35;10.05;;;1.70;;
17794;SDS011;9021;50.882;4.326;2023-01-08T06:24:02;13.02;;;1.55;;
17794;SDS011;9021;50.882;4.326;2023-01-08T06:26:28;10.35;;;1.60;;
17794;SDS011;9021;50.882;4.326;2023-01-08T06:28:53;7.90;;;1.13;;
17794;SDS011;9021;50.882;4.326;2023-01-08T06:31:19;6.30;;;1.38;;
17794;SDS011;9021;50.882;4.326;2023-01-08T06:33:44;8.70;;;1.30;;
17794;SDS011;9021;50.882;4.326;2023-01-08T06:36:10;6.07;;;1.27;;
17794;SDS011;9021;50.882;4.326;2023-01-08T06:38:36;11.35;;;1.35;;
17794;SDS011;9021;50.882;4.326;2023-01-08T06:41:05;4.70;;;1.00;;
17794;SDS011;9021;50.882;4.326;2023-01-08T06:43:33;5.82;;;1.15;;
17794;SDS011;9021;50.882;4.326;2023-01-08T06:45:59;6.25;;;1.35;;
17794;SDS011;9021;50.882;4.326;2023-01-08T06:48:25;8.85;;;1.48;;
17794;SDS011;9021;50.882;4.326;2023-01-08T06:50:51;9.65;;;1.50;;
17794;SDS011;9021;50.882;4.326;2023-01-08T06:53:17;7.90;;;1.40;;
17794;SDS011;9021;50.882;4.326;2023-01-08T06:55:43;3.80;;;0.93;;
17794;SDS011;9021;50.882;4.326;2023-01-08T06:58:09;8.10;;;1.60;;
17794;SDS011;9021;50.882;4.326;2023-01-08T07:00:38;9.50;;;1.38;;
17794;SDS011;9021;50.882;4.326;2023-01-08T07:03:04;7.70;;;1.58;;
17794;SDS011;9021;50.882;4.326;2023-01-08T07:05:30;8.73;;;1.60;;
17794;SDS011;9021;50.882;4.326;2023-01-08T07:07:56;8.95;;;1.70;;
17794;SDS011;9021;50.882;4.326;2023-01-08T07:10:24;14.50;;;1.38;;
17794;SDS011;9021;50.882;4.326;2023-01-08T07:12:51;8.93;;;2.05;;
17794;SDS011;9021;50.882;4.326;2023-01-08T07:15:17;8.35;;;1.52;;
17794;SDS011;9021;50.882;4.326;2023-01-08T07:17:42;5.88;;;1.20;;
17794;SDS011;9021;50.882;4.326;2023-01-08T07:20:08;11.13;;;1.63;;
17794;SDS011;9021;50.882;4.326;2023-01-08T07:22:34;5.90;;;1.17;;
17794;SDS011;9021;50.882;4.326;2023-01-08T07:25:00;8.57;;;1.27;;
17794;SDS011;9021;50.882;4.326;2023-01-08T07:27:26;10.13;;;1.50;;
17794;SDS011;9021;50.882;4.326;2023-01-08T07:29:54;8.80;;;1.60;;
17794;SDS011;9021;50.882;4.326;2023-01-08T07:32:20;4.50;;;1.15;;
17794;SDS011;9021;50.882;4.326;2023-01-08T07:34:46;10.65;;;2.30;;
17794;SDS011;9021;50.882;4.326;2023-01-08T07:37:11;7.35;;;1.20;;
17794;SDS011;9021;50.882;4.326;2023-01-08T07:39:37;10.40;;;1.70;;
17794;SDS011;9021;50.882;4.326;2023-01-08T07:42:03;8.57;;;1.88;;
17794;SDS011;9021;50.882;4.326;2023-01-08T07:44:28;6.72;;;1.83;;
17794;SDS011;9021;50.882;4.326;2023-01-08T07:46:54;8.50;;;1.85;;
17794;SDS011;9021;50.882;4.326;2023-01-08T07:49:19;10.13;;;2.15;;
17794;SDS011;9021;50.882;4.326;2023-01-08T07:51:47;4.72;;;1.65;;
17794;SDS011;9021;50.882;4.326;2023-01-08T07:54:13;9.18;;;1.70;;
17794;SDS011;9021;50.882;4.326;2023-01-08T07:56:39;7.68;;;1.88;;
17794;SDS011;9021;50.882;4.326;2023-01-08T07:59:04;8.77;;;1.80;;
17794;SDS011;9021;50.882;4.326;2023-01-08T08:01:30;18.55;;;1.70;;
17794;SDS011;9021;50.882;4.326;2023-01-08T08:03:55;8.85;;;2.33;;
17794;SDS011;9021;50.882;4.326;2023-01-08T08:06:21;8.43;;;1.88;;
17794;SDS011;9021;50.882;4.326;2023-01-08T08:08:47;7.00;;;1.60;;
17794;SDS011;9021;50.882;4.326;2023-01-08T08:11:12;8.23;;;1.40;;
17794;SDS011;9021;50.882;4.326;2023-01-08T08:13:38;7.85;;;1.83;;
17794;SDS011;9021;50.882;4.326;2023-01-08T08:16:08;9.25;;;1.63;;
17794;SDS011;9021;50.882;4.326;2023-01-08T08:18:35;8.13;;;1.73;;
17794;SDS011;9021;50.882;4.326;2023-01-08T08:21:01;9.07;;;1.67;;
17794;SDS011;9021;50.882;4.326;2023-01-08T08:23:27;6.68;;;1.48;;
17794;SDS011;9021;50.882;4.326;2023-01-08T08:25:53;8.38;;;1.90;;
17794;SDS011;9021;50.882;4.326;2023-01-08T08:28:19;7.60;;;1.33;;
17794;SDS011;9021;50.882;4.326;2023-01-08T08:30:44;9.18;;;1.58;;
17794;SDS011;9021;50.882;4.326;2023-01-08T08:33:10;7.55;;;1.33;;
17794;SDS011;9021;50.882;4.326;2023-01-08T08:35:37;6.63;;;1.52;;
17794;SDS011;9021;50.882;4.326;2023-01-08T08:38:03;8.57;;;1.25;;
17794;SDS011;9021;50.882;4.326;2023-01-08T08:40:29;5.38;;;1.30;;
17794;SDS011;9021;50.882;4.326;2023-01-08T08:42:59;3.40;;;1.00;;
17794;SDS011;9021;50.882;4.326;2023-01-08T08:45:26;6.28;;;1.40;;
17794;SDS011;9021;50.882;4.326;2023-01-08T08:47:52;4.07;;;1.30;;
17794;SDS011;9021;50.882;4.326;2023-01-08T08:50:18;7.05;;;1.73;;
17794;SDS011;9021;50.882;4.326;2023-01-08T08:52:45;4.82;;;1.23;;
17794;SDS011;9021;50.882;4.326;2023-01-08T08:55:12;4.95;;;1.30;;
17794;SDS011;9021;50.882;4.326;2023-01-08T08:57:40;4.97;;;1.20;;
17794;SDS011;9021;50.882;4.326;2023-01-08T09:02:32;5.28;;;1.58;;
17794;SDS011;9021;50.882;4.326;2023-01-08T09:04:58;5.95;;;1.55;;
17794;SDS011;9021;50.882;4.326;2023-01-08T09:09:50;4.03;;;0.98;;
17794;SDS011;9021;50.882;4.326;2023-01-08T09:12:15;2.85;;;0.68;;
17794;SDS011;9021;50.882;4.326;2023-01-08T09:14:42;3.95;;;0.90;;
17794;SDS011;9021;50.882;4.326;2023-01-08T09:17:08;4.22;;;1.27;;
17794;SDS011;9021;50.882;4.326;2023-01-08T09:19:34;2.83;;;0.75;;
17794;SDS011;9021;50.882;4.326;2023-01-08T09:22:00;1.70;;;0.50;;
17794;SDS011;9021;50.882;4.326;2023-01-08T09:24:27;2.78;;;0.50;;
17794;SDS011;9021;50.882;4.326;2023-01-08T09:26:53;2.25;;;0.40;;
17794;SDS011;9021;50.882;4.326;2023-01-08T09:29:19;1.55;;;0.50;;
17794;SDS011;9021;50.882;4.326;2023-01-08T09:34:10;1.35;;;0.57;;
17794;SDS011;9021;50.882;4.326;2023-01-08T09:36:36;1.42;;;0.40;;
17794;SDS011;9021;50.882;4.326;2023-01-08T09:39:02;2.10;;;0.47;;
17794;SDS011;9021;50.882;4.326;2023-01-08T09:41:32;2.45;;;0.60;;
17794;SDS011;9021;50.882;4.326;2023-01-08T09:44:00;0.77;;;0.40;;
17794;SDS011;9021;50.882;4.326;2023-01-08T09:46:28;1.17;;;0.40;;
17794;SDS011;9021;50.882;4.326;2023-01-08T09:48:55;2.58;;;0.40;;
17794;SDS011;9021;50.882;4.326;2023-01-08T09:51:27;2.35;;;0.60;;
17794;SDS011;9021;50.882;4.326;2023-01-08T09:54:00;2.90;;;0.30;;
17794;SDS011;9021;50.882;4.326;2023-01-08T09:56:28;0.50;;;0.30;;
17794;SDS011;9021;50.882;4.326;2023-01-08T09:58:58;1.50;;;0.45;;
17794;SDS011;9021;50.882;4.326;2023-01-08T10:01:29;0.82;;;0.40;;
17794;SDS011;9021;50.882;4.326;2023-01-08T10:04:33;1.25;;;0.40;;
17794;SDS011;9021;50.882;4.326;2023-01-08T10:06:54;0.93;;;0.30;;
17794;SDS011;9021;50.882;4.326;2023-01-08T10:09:35;3.38;;;0.55;;
17794;SDS011;9021;50.882;4.326;2023-01-08T10:12:02;1.60;;;0.50;;
17794;SDS011;9021;50.882;4.326;2023-01-08T10:14:30;1.63;;;0.77;;
17794;SDS011;9021;50.882;4.326;2023-01-08T10:17:07;2.15;;;0.50;;
17794;SDS011;9021;50.882;4.326;2023-01-08T10:19:45;2.25;;;0.50;;
17794;SDS011;9021;50.882;4.326;2023-01-08T10:22:11;3.10;;;0.63;;
17794;SDS011;9021;50.882;4.326;2023-01-08T10:24:41;2.30;;;0.50;;
17794;SDS011;9021;50.882;4.326;2023-01-08T10:27:18;3.70;;;0.80;;
17794;SDS011;9021;50.882;4.326;2023-01-08T10:29:45;2.85;;;0.40;;
17794;SDS011;9021;50.882;4.326;2023-01-08T10:32:15;2.38;;;0.50;;
17794;SDS011;9021;50.882;4.326;2023-01-08T10:34:51;4.18;;;0.60;;
17794;SDS011;9021;50.882;4.326;2023-01-08T10:37:30;5.97;;;1.02;;
17794;SDS011;9021;50.882;4.326;2023-01-08T10:40:16;2.28;;;0.70;;
17794;SDS011;9021;50.882;4.326;2023-01-08T10:43:19;2.88;;;0.90;;
17794;SDS011;9021;50.882;4.326;2023-01-08T10:45:54;4.38;;;0.68;;
17794;SDS011;9021;50.882;4.326;2023-01-08T10:48:22;3.80;;;0.80;;
17794;SDS011;9021;50.882;4.326;2023-01-08T10:51:02;3.35;;;0.82;;
17794;SDS011;9021;50.882;4.326;2023-01-08T10:53:39;6.93;;;0.90;;
17794;SDS011;9021;50.882;4.326;2023-01-08T10:56:05;3.90;;;1.00;;
17794;SDS011;9021;50.882;4.326;2023-01-08T10:58:41;6.90;;;1.08;;
17794;SDS011;9021;50.882;4.326;2023-01-08T11:01:08;7.22;;;1.13;;
17794;SDS011;9021;50.882;4.326;2023-01-08T11:04:00;6.28;;;1.45;;
17794;SDS011;9021;50.882;4.326;2023-01-08T11:06:29;3.13;;;0.80;;
17794;SDS011;9021;50.882;4.326;2023-01-08T11:09:03;3.22;;;0.80;;
17794;SDS011;9021;50.882;4.326;2023-01-08T11:11:46;6.97;;;1.45;;
17794;SDS011;9021;50.882;4.326;2023-01-08T11:14:20;5.63;;;1.10;;
17794;SDS011;9021;50.882;4.326;2023-01-08T11:16:50;6.22;;;1.33;;
17794;SDS011;9021;50.882;4.326;2023-01-08T11:19:27;3.60;;;1.17;;
17794;SDS011;9021;50.882;4.326;2023-01-08T11:22:01;4.25;;;1.10;;
17794;SDS011;9021;50.882;4.326;2023-01-08T11:32:24;5.05;;;1.25;;
17794;SDS011;9021;50.882;4.326;2023-01-08T11:37:21;5.93;;;2.47;;
17794;SDS011;9021;50.882;4.326;2023-01-08T11:39:52;4.50;;;1.90;;
17794;SDS011;9021;50.882;4.326;2023-01-08T11:47:54;5.70;;;1.33;;
17794;SDS011;9021;50.882;4.326;2023-01-08T11:50:58;5.30;;;1.10;;
17794;SDS011;9021;50.882;4.326;2023-01-08T11:53:50;4.13;;;1.00;;
17794;SDS011;9021;50.882;4.326;2023-01-08T11:56:29;6.72;;;1.27;;
17794;SDS011;9021;50.882;4.326;2023-01-08T12:01:45;6.68;;;1.20;;
17794;SDS011;9021;50.882;4.326;2023-01-08T12:06:52;3.60;;;1.13;;
17794;SDS011;9021;50.882;4.326;2023-01-08T12:09:40;6.03;;;1.50;;
17794;SDS011;9021;50.882;4.326;2023-01-08T12:15:19;6.18;;;1.25;;
17794;SDS011;9021;50.882;4.326;2023-01-08T12:20:29;6.03;;;1.10;;
17794;SDS011;9021;50.882;4.326;2023-01-08T12:28:47;6.13;;;1.10;;
17794;SDS011;9021;50.882;4.326;2023-01-08T12:31:26;4.82;;;1.15;;
17794;SDS011;9021;50.882;4.326;2023-01-08T12:35:00;3.88;;;0.90;;
17794;SDS011;9021;50.882;4.326;2023-01-08T12:37:20;3.70;;;0.88;;
17794;SDS011;9021;50.882;4.326;2023-01-08T12:39:59;5.60;;;1.20;;
17794;SDS011;9021;50.882;4.326;2023-01-08T12:42:37;5.53;;;1.20;;
17794;SDS011;9021;50.882;4.326;2023-01-08T12:45:06;3.72;;;0.95;;
17794;SDS011;9021;50.882;4.326;2023-01-08T12:47:45;6.50;;;1.42;;
17794;SDS011;9021;50.882;4.326;2023-01-08T12:51:00;5.65;;;0.93;;
17794;SDS011;9021;50.882;4.326;2023-01-08T12:53:24;10.13;;;1.33;;
17794;SDS011;9021;50.882;4.326;2023-01-08T12:56:04;3.95;;;0.93;;
17794;SDS011;9021;50.882;4.326;2023-01-08T13:01:13;5.22;;;1.13;;
17794;SDS011;9021;50.882;4.326;2023-01-08T13:03:41;5.95;;;1.13;;
17794;SDS011;9021;50.882;4.326;2023-01-08T13:06:12;5.90;;;1.17;;
17794;SDS011;9021;50.882;4.326;2023-01-08T13:08:40;4.90;;;0.90;;
17794;SDS011;9021;50.882;4.326;2023-01-08T13:11:12;6.50;;;1.15;;
17794;SDS011;9021;50.882;4.326;2023-01-08T13:14:08;5.50;;;1.30;;
17794;SDS011;9021;50.882;4.326;2023-01-08T13:16:39;4.97;;;1.25;;
17794;SDS011;9021;50.882;4.326;2023-01-08T13:19:22;8.40;;;1.40;;
17794;SDS011;9021;50.882;4.326;2023-01-08T13:21:54;4.57;;;1.58;;
17794;SDS011;9021;50.882;4.326;2023-01-08T13:24:28;5.00;;;1.05;;
17794;SDS011;9021;50.882;4.326;2023-01-08T13:29:43;3.75;;;0.80;;
17794;SDS011;9021;50.882;4.326;2023-01-08T13:37:43;3.75;;;0.75;;
17794;SDS011;9021;50.882;4.326;2023-01-08T13:43:11;6.00;;;0.90;;
17794;SDS011;9021;50.882;4.326;2023-01-08T13:45:39;3.90;;;1.00;;
17794;SDS011;9021;50.882;4.326;2023-01-08T13:48:19;6.13;;;1.00;;
17794;SDS011;9021;50.882;4.326;2023-01-08T13:50:49;3.83;;;1.00;;
17794;SDS011;9021;50.882;4.326;2023-01-08T13:53:15;4.65;;;1.02;;
17794;SDS011;9021;50.882;4.326;2023-01-08T13:55:45;10.75;;;1.63;;
17794;SDS011;9021;50.882;4.326;2023-01-08T13:58:18;6.07;;;0.95;;
17794;SDS011;9021;50.882;4.326;2023-01-08T14:00:49;3.83;;;0.90;;
17794;SDS011;9021;50.882;4.326;2023-01-08T14:08:49;3.70;;;0.82;;
17794;SDS011;9021;50.882;4.326;2023-01-08T14:11:21;7.20;;;1.00;;
17794;SDS011;9021;50.882;4.326;2023-01-08T14:13:53;4.88;;;1.10;;
17794;SDS011;9021;50.882;4.326;2023-01-08T14:18:45;4.03;;;1.00;;
17794;SDS011;9021;50.882;4.326;2023-01-08T14:23:41;6.78;;;0.98;;
17794;SDS011;9021;50.882;4.326;2023-01-08T14:26:15;3.53;;;0.90;;
17794;SDS011;9021;50.882;4.326;2023-01-08T14:29:00;5.15;;;1.25;;
17794;SDS011;9021;50.882;4.326;2023-01-08T14:31:27;2.53;;;1.15;;
17794;SDS011;9021;50.882;4.326;2023-01-08T14:36:20;6.47;;;3.10;;
17794;SDS011;9021;50.882;4.326;2023-01-08T14:38:46;4.53;;;1.38;;
17794;SDS011;9021;50.882;4.326;2023-01-08T14:41:15;5.57;;;1.52;;
17794;SDS011;9021;50.882;4.326;2023-01-08T14:43:45;8.93;;;4.38;;
17794;SDS011;9021;50.882;4.326;2023-01-08T14:48:50;6.18;;;2.22;;
17794;SDS011;9021;50.882;4.326;2023-01-08T14:51:21;5.35;;;2.10;;
17794;SDS011;9021;50.882;4.326;2023-01-08T14:53:53;3.45;;;1.40;;
17794;SDS011;9021;50.882;4.326;2023-01-08T14:56:26;7.85;;;1.65;;
17794;SDS011;9021;50.882;4.326;2023-01-08T14:59:07;5.32;;;1.45;;
17794;SDS011;9021;50.882;4.326;2023-01-08T15:01:35;4.20;;;1.55;;
17794;SDS011;9021;50.882;4.326;2023-01-08T15:04:05;7.68;;;1.33;;
17794;SDS011;9021;50.882;4.326;2023-01-08T15:06:31;5.15;;;1.10;;
17794;SDS011;9021;50.882;4.326;2023-01-08T15:08:59;5.85;;;1.20;;
17794;SDS011;9021;50.882;4.326;2023-01-08T15:11:29;9.00;;;1.48;;
17794;SDS011;9021;50.882;4.326;2023-01-08T15:13:56;4.85;;;1.33;;
17794;SDS011;9021;50.882;4.326;2023-01-08T15:16:26;8.43;;;1.65;;
17794;SDS011;9021;50.882;4.326;2023-01-08T15:19:04;5.87;;;1.60;;
17794;SDS011;9021;50.882;4.326;2023-01-08T15:21:38;5.85;;;1.75;;
17794;SDS011;9021;50.882;4.326;2023-01-08T15:24:21;6.07;;;1.58;;
17794;SDS011;9021;50.882;4.326;2023-01-08T15:26:49;4.50;;;1.10;;
17794;SDS011;9021;50.882;4.326;2023-01-08T15:29:17;4.95;;;1.27;;
17794;SDS011;9021;50.882;4.326;2023-01-08T15:31:47;4.75;;;1.00;;
17794;SDS011;9021;50.882;4.326;2023-01-08T15:34:13;5.90;;;1.38;;
17794;SDS011;9021;50.882;4.326;2023-01-08T15:36:42;6.40;;;1.45;;
17794;SDS011;9021;50.882;4.326;2023-01-08T15:39:09;7.22;;;1.50;;
17794;SDS011;9021;50.882;4.326;2023-01-08T15:41:35;5.78;;;1.15;;
17794;SDS011;9021;50.882;4.326;2023-01-08T15:44:21;6.82;;;1.15;;
17794;SDS011;9021;50.882;4.326;2023-01-08T15:46:46;7.97;;;1.40;;
17794;SDS011;9021;50.882;4.326;2023-01-08T15:49:12;6.28;;;1.38;;
17794;SDS011;9021;50.882;4.326;2023-01-08T15:51:41;7.60;;;1.70;;
17794;SDS011;9021;50.882;4.326;2023-01-08T15:54:11;6.20;;;1.38;;
17794;SDS011;9021;50.882;4.326;2023-01-08T15:56:38;5.00;;;1.15;;
17794;SDS011;9021;50.882;4.326;2023-01-08T16:01:30;6.88;;;1.45;;
17794;SDS011;9021;50.882;4.326;2023-01-08T16:03:57;8.73;;;1.80;;
17794;SDS011;9021;50.882;4.326;2023-01-08T16:06:22;5.85;;;1.23;;
17794;SDS011;9021;50.882;4.326;2023-01-08T16:08:48;5.45;;;1.80;;
17794;SDS011;9021;50.882;4.326;2023-01-08T16:11:17;9.25;;;2.08;;
17794;SDS011;9021;50.882;4.326;2023-01-08T16:13:43;6.40;;;2.20;;
17794;SDS011;9021;50.882;4.326;2023-01-08T16:16:11;8.50;;;2.28;;
17794;SDS011;9021;50.882;4.326;2023-01-08T16:18:38;5.65;;;2.13;;
17794;SDS011;9021;50.882;4.326;2023-01-08T16:21:04;6.32;;;1.75;;
17794;SDS011;9021;50.882;4.326;2023-01-08T16:23:34;8.98;;;1.90;;
17794;SDS011;9021;50.882;4.326;2023-01-08T16:26:19;8.65;;;1.55;;
17794;SDS011;9021;50.882;4.326;2023-01-08T16:28:44;5.10;;;1.58;;
17794;SDS011;9021;50.882;4.326;2023-01-08T16:31:10;5.32;;;1.48;;
17794;SDS011;9021;50.882;4.326;2023-01-08T16:33:36;6.30;;;1.85;;
17794;SDS011;9021;50.882;4.326;2023-01-08T16:36:03;6.35;;;1.42;;
17794;SDS011;9021;50.882;4.326;2023-01-08T16:38:31;4.25;;;1.30;;
17794;SDS011;9021;50.882;4.326;2023-01-08T16:40:57;6.13;;;1.27;;
17794;SDS011;9021;50.882;4.326;2023-01-08T16:43:23;5.82;;;1.50;;
17794;SDS011;9021;50.882;4.326;2023-01-08T16:45:50;8.73;;;3.42;;
17794;SDS011;9021;50.882;4.326;2023-01-08T16:48:16;11.43;;;2.28;;
17794;SDS011;9021;50.882;4.326;2023-01-08T16:53:08;8.80;;;2.05;;